createdAt,value
2022-12-03T00:00:56.723Z,24.73
2022-12-03T00:03:24.443Z,27.10
2022-12-03T00:05:51.815Z,25.75
2022-12-03T00:08:19.441Z,24.83
2022-12-03T00:10:46.839Z,25.60
2022-12-03T00:13:14.266Z,24.95
2022-12-03T00:15:41.493Z,25.15
2022-12-03T00:18:09.021Z,24.55
2022-12-03T00:20:36.238Z,24.98
2022-12-03T00:23:03.780Z,23.92
2022-12-03T00:25:31.013Z,23.65
2022-12-03T00:27:58.580Z,23.67
2022-12-03T00:30:25.769Z,23.20
2022-12-03T00:32:53.391Z,23.80
2022-12-03T00:35:20.668Z,23.08
2022-12-03T00:37:48.309Z,23.05
2022-12-03T00:40:15.876Z,23.50
2022-12-03T00:42:43.431Z,23.63
2022-12-03T00:45:10.964Z,24.55
2022-12-03T00:47:38.629Z,24.02
2022-12-03T00:50:06.956Z,25.25
2022-12-03T00:52:34.519Z,24.95
2022-12-03T00:55:01.761Z,24.70
2022-12-03T00:57:29.345Z,24.08
2022-12-03T00:59:56.558Z,24.30
2022-12-03T01:02:24.120Z,23.95
2022-12-03T01:04:51.898Z,23.65
2022-12-03T01:07:19.729Z,25.92
2022-12-03T01:09:46.880Z,24.85
2022-12-03T01:12:14.485Z,23.13
2022-12-03T01:14:41.791Z,25.35
2022-12-03T01:17:09.277Z,23.15
2022-12-03T01:19:36.776Z,23.98
2022-12-03T01:22:04.619Z,22.25
2022-12-03T01:24:31.906Z,22.60
2022-12-03T01:27:01.032Z,20.88
2022-12-03T01:29:28.288Z,23.27
2022-12-03T01:32:14.321Z,23.83
2022-12-03T01:34:41.557Z,22.63
2022-12-03T01:37:09.694Z,22.15
2022-12-03T01:39:36.977Z,21.95
2022-12-03T01:42:05.463Z,22.48
2022-12-03T01:44:34.983Z,20.98
2022-12-03T01:47:05.944Z,21.95
2022-12-03T01:49:54.345Z,21.75
2022-12-03T01:52:27.428Z,21.83
2022-12-03T01:54:57.129Z,21.08
2022-12-03T01:57:32.256Z,22.67
2022-12-03T02:00:00.672Z,22.70
2022-12-03T02:02:32.548Z,20.70
2022-12-03T02:05:01.599Z,19.48
2022-12-03T02:07:33.866Z,19.77
2022-12-03T02:10:03.740Z,19.65
2022-12-03T02:12:35.884Z,21.80
2022-12-03T02:15:05.340Z,19.70
2022-12-03T02:20:01.865Z,18.65
2022-12-03T02:22:43.756Z,19.77
2022-12-03T02:25:19.469Z,20.95
2022-12-03T02:27:48.143Z,20.77
2022-12-03T02:30:19.367Z,19.20
2022-12-03T02:32:48.060Z,20.05
2022-12-03T02:35:18.750Z,18.92
2022-12-03T02:37:47.725Z,20.63
2022-12-03T02:41:07.820Z,20.35
2022-12-03T02:43:35.738Z,20.35
2022-12-03T02:46:03.983Z,19.42
2022-12-03T02:48:40.097Z,20.88
2022-12-03T02:51:10.368Z,22.13
2022-12-03T02:53:44.577Z,23.15
2022-12-03T02:56:18.312Z,19.95
2022-12-03T02:58:48.694Z,20.67
2022-12-03T03:01:17.195Z,23.45
2022-12-03T03:03:47.016Z,24.63
2022-12-03T03:06:15.685Z,24.85
2022-12-03T03:08:43.746Z,22.20
2022-12-03T03:11:11.754Z,22.80
2022-12-03T03:13:39.954Z,22.05
2022-12-03T03:16:08.472Z,23.65
2022-12-03T03:18:37.033Z,20.50
2022-12-03T03:21:05.290Z,20.50
2022-12-03T03:23:33.076Z,21.27
2022-12-03T03:26:05.541Z,23.00
2022-12-03T03:28:36.055Z,21.63
2022-12-03T03:31:07.249Z,23.65
2022-12-03T03:33:36.720Z,23.67
2022-12-03T03:36:04.502Z,23.80
2022-12-03T03:38:32.817Z,22.75
2022-12-03T03:41:02.890Z,22.27
2022-12-03T03:43:30.997Z,22.23
2022-12-03T03:45:58.455Z,22.98
2022-12-03T03:48:26.449Z,24.17
2022-12-03T03:50:54.078Z,23.73
2022-12-03T03:53:23.266Z,24.23
2022-12-03T03:55:51.334Z,23.98
2022-12-03T03:58:18.863Z,24.33
2022-12-03T04:00:46.787Z,22.75
2022-12-03T04:03:14.554Z,23.77
2022-12-03T04:05:41.923Z,20.58
2022-12-03T04:08:09.717Z,22.88
2022-12-03T04:10:55.566Z,22.05
2022-12-03T04:13:23.249Z,20.98
2022-12-03T04:15:50.501Z,22.98
2022-12-03T04:18:36.849Z,24.80
2022-12-03T04:21:22.837Z,22.25
2022-12-03T04:23:50.396Z,23.17
2022-12-03T04:26:36.289Z,23.27
2022-12-03T04:29:03.872Z,23.77
2022-12-03T04:31:49.580Z,24.15
2022-12-03T04:34:35.863Z,23.75
2022-12-03T04:37:03.610Z,23.23
2022-12-03T04:39:31.478Z,24.45
2022-12-03T04:41:58.666Z,24.63
2022-12-03T04:44:38.296Z,25.92
2022-12-03T04:47:17.668Z,25.60
2022-12-03T04:49:50.542Z,23.73
2022-12-03T04:52:20.396Z,22.75
2022-12-03T04:54:48.200Z,25.98
2022-12-03T04:57:15.513Z,25.42
2022-12-03T04:59:42.933Z,25.45
2022-12-03T05:02:10.368Z,25.27
2022-12-03T05:04:38.086Z,23.88
2022-12-03T05:07:05.325Z,27.13
2022-12-03T05:09:33.259Z,25.38
2022-12-03T05:12:00.843Z,26.05
2022-12-03T05:14:28.246Z,25.20
2022-12-03T05:16:55.444Z,23.98
2022-12-03T05:19:42.962Z,25.33
2022-12-03T05:22:10.154Z,26.23
2022-12-03T05:24:37.790Z,24.52
2022-12-03T05:27:05.015Z,24.80
2022-12-03T05:29:32.675Z,23.63
2022-12-03T05:31:59.957Z,26.65
2022-12-03T05:34:27.515Z,25.83
2022-12-03T05:36:54.633Z,26.58
2022-12-03T05:39:22.171Z,24.23
2022-12-03T05:42:07.897Z,23.85
2022-12-03T05:44:35.363Z,25.67
2022-12-03T05:47:02.598Z,24.88
2022-12-03T05:49:30.197Z,25.50
2022-12-03T05:51:58.827Z,23.95
2022-12-03T05:54:26.662Z,23.25
2022-12-03T05:56:53.890Z,23.30
2022-12-03T05:59:21.680Z,24.67
2022-12-03T06:01:48.964Z,27.27
2022-12-03T06:04:16.365Z,27.10
2022-12-03T06:06:43.475Z,28.10
2022-12-03T06:09:11.155Z,25.85
2022-12-03T06:11:39.986Z,24.15
2022-12-03T06:14:07.758Z,25.52
2022-12-03T06:16:34.994Z,26.10
2022-12-03T06:19:02.735Z,25.55
2022-12-03T06:21:29.975Z,24.75
2022-12-03T06:23:57.595Z,25.40
2022-12-03T06:26:24.720Z,24.63
2022-12-03T06:28:52.524Z,25.10
2022-12-03T06:31:19.799Z,25.52
2022-12-03T06:33:47.349Z,27.45
2022-12-03T06:36:17.703Z,26.42
2022-12-03T06:38:47.378Z,26.15
2022-12-03T06:41:14.567Z,24.55
2022-12-03T06:43:42.065Z,24.27
2022-12-03T06:46:09.260Z,26.88
2022-12-03T06:48:36.863Z,25.38
2022-12-03T06:51:04.369Z,22.73
2022-12-03T06:53:31.979Z,22.92
2022-12-03T06:55:59.958Z,25.38
2022-12-03T06:58:27.644Z,23.05
2022-12-03T07:00:54.822Z,25.15
2022-12-03T07:03:22.458Z,25.83
2022-12-03T07:05:49.619Z,23.15
2022-12-03T07:08:18.261Z,26.33
2022-12-03T07:10:45.782Z,23.80
2022-12-03T07:13:13.505Z,23.10
2022-12-03T07:15:40.979Z,25.40
2022-12-03T07:18:08.771Z,23.88
2022-12-03T07:20:36.168Z,24.67
2022-12-03T07:23:03.905Z,23.35
2022-12-03T07:25:31.379Z,26.85
2022-12-03T07:27:58.949Z,25.88
2022-12-03T07:30:27.873Z,25.13
2022-12-03T07:32:56.813Z,25.65
2022-12-03T07:35:24.427Z,26.48
2022-12-03T07:37:52.081Z,24.65
2022-12-03T07:40:19.278Z,26.33
2022-12-03T07:42:46.919Z,26.00
2022-12-03T07:45:14.332Z,24.92
2022-12-03T07:47:42.191Z,26.05
2022-12-03T07:50:11.077Z,25.17
2022-12-03T07:52:38.731Z,23.20
2022-12-03T07:55:16.277Z,24.85
2022-12-03T07:57:44.317Z,25.35
2022-12-03T08:00:12.568Z,23.45
2022-12-03T08:02:40.640Z,23.80
2022-12-03T08:05:08.304Z,24.80
2022-12-03T08:07:36.021Z,24.13
2022-12-03T08:10:04.874Z,23.63
2022-12-03T08:12:41.883Z,25.10
2022-12-03T08:15:16.172Z,24.67
2022-12-03T08:17:46.053Z,24.35
2022-12-03T08:20:19.618Z,24.63
2022-12-03T08:22:49.754Z,22.10
2022-12-03T08:27:56.681Z,21.83
2022-12-03T08:30:24.108Z,21.50
2022-12-03T08:32:52.941Z,23.88
2022-12-03T08:35:30.984Z,24.80
2022-12-03T08:38:10.487Z,25.02
2022-12-03T08:40:42.446Z,25.88
2022-12-03T08:43:27.759Z,25.70
2022-12-03T08:45:57.172Z,26.85
2022-12-03T08:51:27.547Z,25.92
2022-12-03T08:54:04.546Z,25.95
2022-12-03T08:56:37.119Z,26.17
2022-12-03T08:59:39.402Z,27.00
2022-12-03T09:05:35.150Z,27.05
2022-12-03T09:08:02.865Z,25.40
2022-12-03T09:10:32.122Z,27.25
2022-12-03T09:13:03.651Z,27.98
2022-12-03T09:15:33.577Z,27.52
2022-12-03T09:18:01.032Z,29.00
2022-12-03T09:20:28.593Z,29.48
2022-12-03T09:22:56.003Z,27.67
2022-12-03T09:25:23.739Z,28.15
2022-12-03T09:27:50.939Z,29.17
2022-12-03T09:30:19.188Z,30.27
2022-12-03T09:32:46.880Z,31.48
2022-12-03T09:35:14.979Z,30.15
2022-12-03T09:37:45.575Z,31.52
2022-12-03T09:40:13.851Z,30.55
2022-12-03T09:42:41.837Z,30.85
2022-12-03T09:45:13.047Z,30.85
2022-12-03T09:47:49.596Z,31.00
2022-12-03T09:50:21.888Z,31.38
2022-12-03T09:52:51.159Z,33.95
2022-12-03T09:55:23.105Z,33.28
2022-12-03T09:57:52.939Z,31.13
2022-12-03T10:00:25.399Z,34.13
2022-12-03T10:02:56.326Z,33.33
2022-12-03T10:05:24.872Z,31.58
2022-12-03T10:07:53.484Z,29.95
2022-12-03T10:10:24.109Z,32.10
2022-12-03T10:12:52.445Z,32.42
2022-12-03T10:15:23.228Z,32.53
2022-12-03T10:17:54.824Z,29.50
2022-12-03T10:20:25.449Z,28.17
2022-12-03T10:22:52.977Z,28.88
2022-12-03T10:25:22.597Z,31.13
2022-12-03T10:28:04.086Z,30.20
2022-12-03T10:30:32.246Z,27.85
2022-12-03T10:33:15.704Z,28.60
2022-12-03T10:35:46.452Z,27.92
2022-12-03T10:38:16.682Z,29.85
2022-12-03T10:40:44.861Z,28.88
2022-12-03T10:43:20.973Z,30.20
2022-12-03T10:45:51.936Z,31.02
2022-12-03T10:48:25.668Z,29.90
2022-12-03T10:51:02.742Z,30.17
2022-12-03T10:53:32.251Z,31.08
2022-12-03T10:56:05.066Z,32.00
2022-12-03T10:58:38.765Z,32.17
2022-12-03T11:04:05.194Z,34.45
2022-12-03T11:06:36.037Z,36.63
2022-12-03T11:09:08.883Z,35.97
2022-12-03T11:11:37.408Z,33.53
2022-12-03T11:14:05.706Z,32.38
2022-12-03T11:16:40.118Z,35.08
2022-12-03T11:19:13.763Z,34.90
2022-12-03T11:22:14.442Z,34.17
2022-12-03T11:24:42.085Z,31.15
2022-12-03T11:27:10.179Z,33.00
2022-12-03T11:29:52.851Z,31.58
2022-12-03T11:32:39.277Z,32.47
2022-12-03T11:35:29.070Z,32.03
2022-12-03T11:38:35.648Z,32.03
2022-12-03T11:41:18.400Z,33.08
2022-12-03T11:44:04.331Z,33.08
2022-12-03T11:46:37.818Z,32.13
2022-12-03T11:49:33.131Z,32.10
2022-12-03T11:52:12.017Z,32.30
2022-12-03T11:54:40.220Z,31.17
2022-12-03T12:00:21.783Z,32.08
2022-12-03T12:02:50.293Z,32.42
2022-12-03T12:05:25.857Z,32.27
2022-12-03T12:07:54.329Z,33.33
2022-12-03T12:11:01.050Z,32.10
2022-12-03T12:13:31.347Z,31.08
2022-12-03T12:16:01.238Z,31.85
2022-12-03T12:18:37.641Z,30.85
2022-12-03T12:21:49.079Z,30.75
2022-12-03T12:24:43.730Z,29.52
2022-12-03T12:27:39.469Z,31.70
2022-12-03T12:30:12.982Z,31.50
2022-12-03T12:32:51.069Z,29.98
2022-12-03T12:35:31.037Z,29.95
2022-12-03T12:38:08.875Z,29.92
2022-12-03T12:40:45.259Z,28.92
2022-12-03T12:43:23.736Z,29.83
2022-12-03T12:45:55.496Z,30.10
2022-12-03T12:48:31.445Z,29.92
2022-12-03T12:51:01.384Z,29.88
2022-12-03T12:53:35.732Z,30.10
2022-12-03T12:56:22.150Z,30.73
2022-12-03T12:58:50.670Z,29.15
2022-12-03T13:01:31.957Z,29.08
2022-12-03T13:04:00.362Z,29.50
2022-12-03T13:06:45.256Z,31.38
2022-12-03T13:09:17.984Z,29.17
2022-12-03T13:11:58.240Z,28.85
2022-12-03T13:17:26.266Z,26.73
2022-12-03T13:22:54.366Z,28.30
2022-12-03T13:28:22.840Z,28.85
2022-12-03T13:31:00.522Z,30.42
2022-12-03T13:33:28.145Z,31.50
2022-12-03T13:36:09.809Z,30.00
2022-12-03T13:38:37.614Z,28.80
2022-12-03T13:41:12.013Z,27.40
2022-12-03T13:43:44.635Z,28.65
2022-12-03T13:49:02.192Z,29.90
2022-12-03T13:51:33.742Z,30.23
2022-12-03T13:54:01.293Z,27.10
2022-12-03T13:59:13.928Z,28.27
2022-12-03T14:01:41.926Z,30.08
2022-12-03T14:04:10.566Z,32.45
2022-12-03T14:06:38.659Z,31.17
2022-12-03T14:09:06.407Z,29.73
2022-12-03T14:11:52.762Z,27.33
2022-12-03T14:14:20.472Z,27.80
2022-12-03T14:16:48.734Z,29.95
2022-12-03T14:19:16.204Z,27.92
2022-12-03T14:21:44.052Z,28.13
2022-12-03T14:24:11.768Z,27.90
2022-12-03T14:26:39.971Z,28.75
2022-12-03T14:29:09.088Z,29.00
2022-12-03T14:31:37.082Z,27.55
2022-12-03T14:34:04.673Z,28.55
2022-12-03T14:36:32.605Z,27.92
2022-12-03T14:39:11.780Z,27.67
2022-12-03T14:41:58.111Z,28.73
2022-12-03T14:44:25.927Z,28.25
2022-12-03T14:46:57.473Z,27.70
2022-12-03T14:49:26.159Z,28.30
2022-12-03T14:51:53.852Z,28.65
2022-12-03T14:54:22.124Z,29.10
2022-12-03T14:56:51.342Z,28.33
2022-12-03T14:59:22.998Z,28.80
2022-12-03T15:01:54.601Z,28.25
2022-12-03T15:04:24.668Z,29.50
2022-12-03T15:06:52.413Z,27.67
2022-12-03T15:09:26.407Z,28.27
2022-12-03T15:11:55.360Z,28.58
2022-12-03T15:14:23.303Z,28.23
2022-12-03T15:16:51.920Z,30.07
2022-12-03T15:22:04.848Z,30.70
2022-12-03T15:24:32.131Z,29.92
2022-12-03T15:26:59.930Z,30.77
2022-12-03T15:29:27.712Z,33.13
2022-12-03T15:31:55.706Z,32.22
2022-12-03T15:34:23.525Z,34.78
2022-12-03T15:36:51.652Z,33.10
2022-12-03T15:42:04.880Z,33.10
2022-12-03T15:44:32.087Z,33.35
2022-12-03T15:47:02.108Z,33.88
2022-12-03T15:49:29.532Z,34.80
2022-12-03T15:54:45.225Z,33.08
2022-12-03T15:59:57.611Z,33.80
2022-12-03T16:02:25.408Z,35.35
2022-12-03T16:04:53.325Z,34.80
2022-12-03T16:07:21.716Z,33.73
2022-12-03T16:09:49.342Z,32.15
2022-12-03T16:12:19.155Z,33.35
2022-12-03T16:14:46.590Z,32.65
2022-12-03T16:17:14.277Z,34.35
2022-12-03T16:19:41.833Z,34.60
2022-12-03T16:22:09.511Z,33.03
2022-12-03T16:24:37.027Z,34.33
2022-12-03T16:27:05.053Z,32.38
2022-12-03T16:29:34.967Z,33.97
2022-12-03T16:32:03.078Z,35.03
2022-12-03T16:34:36.138Z,33.30
2022-12-03T16:37:04.930Z,34.40
2022-12-03T16:42:20.619Z,33.08
2022-12-03T16:45:12.367Z,33.72
2022-12-03T16:47:49.792Z,33.65
2022-12-03T16:50:29.360Z,34.80
2022-12-03T16:53:04.613Z,36.15
2022-12-03T16:55:39.938Z,33.05
2022-12-03T16:58:22.521Z,33.25
2022-12-03T17:01:02.198Z,33.95
2022-12-03T17:04:01.288Z,34.80
2022-12-03T17:06:36.625Z,33.85
2022-12-03T17:09:07.158Z,34.22
2022-12-03T17:11:39.624Z,35.65
2022-12-03T17:14:14.192Z,34.10
2022-12-03T17:16:43.475Z,34.65
2022-12-03T17:19:14.162Z,35.78
2022-12-03T17:21:48.681Z,34.55
2022-12-03T17:24:22.239Z,33.97
2022-12-03T17:26:51.672Z,37.35
2022-12-03T17:29:37.782Z,36.47
2022-12-03T17:32:11.160Z,35.95
2022-12-03T17:34:46.918Z,36.58
2022-12-03T17:37:15.979Z,36.92
2022-12-03T17:39:51.739Z,36.75
2022-12-03T17:42:22.819Z,35.78
2022-12-03T17:44:50.978Z,38.20
2022-12-03T17:47:18.465Z,39.58
2022-12-03T17:49:46.204Z,35.30
2022-12-03T17:52:25.580Z,36.80
2022-12-03T17:55:17.752Z,37.17
2022-12-03T17:58:19.959Z,36.50
2022-12-03T18:01:48.796Z,36.47
2022-12-03T18:04:37.161Z,35.03
2022-12-03T18:07:34.320Z,36.45
2022-12-03T18:15:19.718Z,34.50
2022-12-03T18:18:00.007Z,35.22
2022-12-03T18:21:07.594Z,34.90
2022-12-03T18:24:15.840Z,32.60
2022-12-03T18:26:51.510Z,33.97
2022-12-03T18:29:25.308Z,34.58
2022-12-03T18:31:56.997Z,36.35
2022-12-03T18:34:26.281Z,34.90
2022-12-03T18:36:59.993Z,37.80
2022-12-03T18:39:39.046Z,34.67
2022-12-03T18:42:19.938Z,36.80
2022-12-03T18:44:54.196Z,36.55
2022-12-03T18:47:29.878Z,35.85
2022-12-03T18:50:00.351Z,36.10
2022-12-03T18:52:38.710Z,35.85
2022-12-03T18:55:11.911Z,36.72
2022-12-03T18:57:44.967Z,33.35
2022-12-03T19:00:15.555Z,36.80
2022-12-03T19:03:15.281Z,36.80
2022-12-03T19:08:15.231Z,35.45
2022-12-03T19:10:57.923Z,36.63
2022-12-03T19:13:29.303Z,35.67
2022-12-03T19:16:02.932Z,38.17
2022-12-03T19:18:33.051Z,37.75
2022-12-03T19:21:15.682Z,36.20
2022-12-03T19:24:15.985Z,38.05
2022-12-03T19:26:33.783Z,36.20
2022-12-03T19:29:04.285Z,35.45
2022-12-03T19:31:33.683Z,35.83
2022-12-03T19:36:31.361Z,36.58
2022-12-03T19:39:00.774Z,36.70
2022-12-03T19:41:30.914Z,40.65
2022-12-03T19:43:59.837Z,37.25
2022-12-03T19:46:30.712Z,37.08
2022-12-03T19:48:59.235Z,37.47
2022-12-03T19:51:36.037Z,38.13
2022-12-03T19:54:06.768Z,37.50
2022-12-03T19:56:35.116Z,37.72
2022-12-03T19:59:05.396Z,37.88
2022-12-03T20:01:36.323Z,39.08
2022-12-03T20:04:04.413Z,37.85
2022-12-03T20:06:34.520Z,39.22
2022-12-03T20:09:12.259Z,40.17
2022-12-03T20:11:41.400Z,36.97
2022-12-03T20:14:12.484Z,38.92
2022-12-03T20:16:39.973Z,38.25
2022-12-03T20:19:12.282Z,38.65
2022-12-03T20:21:41.128Z,37.30
2022-12-03T20:24:10.214Z,40.77
2022-12-03T20:26:37.752Z,38.30
2022-12-03T20:29:05.727Z,37.58
2022-12-03T20:31:33.535Z,38.80
2022-12-03T20:34:03.253Z,37.92
2022-12-03T20:36:32.376Z,37.35
2022-12-03T20:39:02.993Z,39.53
2022-12-03T20:41:30.727Z,39.65
2022-12-03T20:43:58.560Z,41.83
2022-12-03T20:46:29.570Z,42.75
2022-12-03T20:48:58.538Z,39.60
2022-12-03T20:51:29.802Z,38.72
2022-12-03T20:53:59.040Z,39.38
2022-12-03T20:56:31.843Z,38.90
2022-12-03T20:59:03.060Z,38.72
2022-12-03T21:01:30.924Z,38.13
2022-12-03T21:03:58.869Z,39.60
2022-12-03T21:06:28.169Z,38.47
2022-12-03T21:08:57.602Z,38.20
2022-12-03T21:11:29.656Z,39.80
2022-12-03T21:13:59.125Z,38.92
2022-12-03T21:16:58.962Z,39.38
2022-12-03T21:19:18.449Z,38.97
2022-12-03T21:21:46.151Z,41.67
2022-12-03T21:24:14.076Z,39.75
2022-12-03T21:26:41.967Z,37.90
2022-12-03T21:29:09.853Z,38.35
2022-12-03T21:31:38.605Z,38.78
2022-12-03T21:34:08.530Z,39.25
2022-12-03T21:36:36.291Z,38.92
2022-12-03T21:39:05.538Z,38.45
2022-12-03T21:41:35.201Z,38.37
2022-12-03T21:44:03.869Z,35.92
2022-12-03T21:47:09.875Z,38.05
2022-12-03T21:49:20.398Z,37.10
2022-12-03T21:51:47.728Z,39.15
2022-12-03T21:54:15.845Z,38.20
2022-12-03T21:56:43.399Z,39.42
2022-12-03T21:59:11.328Z,38.78
2022-12-03T22:01:41.660Z,38.53
2022-12-03T22:04:13.360Z,36.78
2022-12-03T22:06:40.995Z,38.35
2022-12-03T22:09:08.735Z,38.35
2022-12-03T22:11:36.097Z,37.72
2022-12-03T22:14:04.963Z,37.70
2022-12-03T22:16:32.580Z,37.97
2022-12-03T22:19:00.259Z,37.97
2022-12-03T22:21:27.796Z,38.97
2022-12-03T22:23:56.117Z,37.20
2022-12-03T22:26:23.422Z,37.47
2022-12-03T22:28:50.910Z,38.33
2022-12-03T22:31:18.819Z,38.47
2022-12-03T22:33:48.575Z,36.60
2022-12-03T22:36:21.126Z,38.45
2022-12-03T22:38:50.544Z,40.08
2022-12-03T22:41:18.858Z,37.20
2022-12-03T22:43:47.820Z,38.42
2022-12-03T22:46:16.066Z,37.92
2022-12-03T22:48:45.611Z,38.13
2022-12-03T22:51:18.745Z,38.92
2022-12-03T22:53:46.584Z,39.53
2022-12-03T22:56:14.114Z,40.03
2022-12-03T22:58:41.736Z,38.83
2022-12-03T23:01:09.098Z,38.58
2022-12-03T23:03:37.385Z,38.15
2022-12-03T23:06:12.261Z,39.95
2022-12-03T23:08:39.914Z,37.90
2022-12-03T23:11:07.879Z,37.53
2022-12-03T23:13:35.541Z,39.00
2022-12-03T23:16:03.678Z,38.20
2022-12-03T23:18:31.519Z,38.53
2022-12-03T23:20:59.274Z,38.33
2022-12-03T23:23:27.724Z,39.08
2022-12-03T23:26:00.805Z,38.20
2022-12-03T23:28:30.702Z,38.17
2022-12-03T23:33:25.892Z,37.50
2022-12-03T23:35:53.471Z,37.67
2022-12-03T23:38:21.052Z,35.97
2022-12-03T23:40:48.638Z,39.25
2022-12-03T23:43:16.586Z,40.97
2022-12-03T23:45:43.786Z,47.20
2022-12-03T23:48:11.291Z,41.97
2022-12-03T23:50:39.889Z,42.28
2022-12-03T23:53:07.462Z,42.83
2022-12-03T23:55:34.748Z,41.28
2022-12-03T23:58:02.257Z,39.70
